Time;durP1;ratioP1;P1;durP2;ratioP2;P2;SDS_P1;SDS_P2;PMS_P1;PMS_P2;Temp;Humidity;BMP_temperature;BMP_pressure;BME280_temperature;BME280_humidity;BME280_pressure;Samples;Min_cycle;Max_cycle;Signal;HPM_P1;HPM_P2
2022/12/23 00:02:17;;;;;;;0.88;0.40;;;;;;;;;;5117465;28;20047;-57
2022/12/23 00:04:43;;;;;;;2.75;0.40;;;;;;;;;;5117370;28;20469;-56
2022/12/23 00:07:09;;;;;;;2.75;0.68;;;;;;;;;;5116917;28;20051;-54
2022/12/23 00:09:35;;;;;;;0.88;0.35;;;;;;;;;;5116948;28;20023;-57
2022/12/23 00:15:04;;;;;;;0.85;0.47;;;;;;;;;;5117046;28;20032;-57
2022/12/23 00:17:30;;;;;;;3.50;0.45;;;;;;;;;;5117148;28;20027;-58
2022/12/23 00:19:56;;;;;;;0.73;0.45;;;;;;;;;;5117100;28;20032;-57
2022/12/23 00:23:03;;;;;;;2.08;0.52;;;;;;;;;;5116779;28;20149;-56
2022/12/23 00:25:08;;;;;;;2.33;0.57;;;;;;;;;;5116288;28;20035;-57
2022/12/23 00:27:34;;;;;;;2.92;0.40;;;;;;;;;;5116634;28;20027;-57
2022/12/23 00:30:00;;;;;;;0.40;0.20;;;;;;;;;;5116613;28;20030;-58
2022/12/23 00:32:26;;;;;;;2.10;0.40;;;;;;;;;;5116370;28;20419;-58
2022/12/23 00:34:52;;;;;;;1.85;0.35;;;;;;;;;;5116592;28;20023;-57
2022/12/23 00:37:18;;;;;;;0.63;0.40;;;;;;;;;;5116550;28;20069;-57
2022/12/23 00:45:16;;;;;;;2.95;0.40;;;;;;;;;;5116734;28;20055;-58
2022/12/23 00:50:31;;;;;;;1.50;0.68;;;;;;;;;;5116343;28;20073;-59
2022/12/23 00:52:57;;;;;;;0.77;0.22;;;;;;;;;;5116518;28;20043;-57
2022/12/23 00:55:23;;;;;;;1.60;0.52;;;;;;;;;;5115980;28;20103;-54
2022/12/23 00:57:49;;;;;;;0.30;0.10;;;;;;;;;;5115771;28;20111;-57
2022/12/23 01:00:15;;;;;;;0.40;0.20;;;;;;;;;;5116302;28;20070;-56
2022/12/23 01:05:38;;;;;;;0.55;0.30;;;;;;;;;;5115256;27;20093;-56
2022/12/23 01:08:08;;;;;;;0.32;0.22;;;;;;;;;;5115990;28;20032;-56
2022/12/23 01:10:35;;;;;;;1.58;0.50;;;;;;;;;;5116153;28;20028;-57
2022/12/23 01:13:01;;;;;;;2.63;0.38;;;;;;;;;;5115809;28;20054;-57
2022/12/23 01:15:27;;;;;;;0.65;0.40;;;;;;;;;;5115761;28;20016;-57
2022/12/23 01:17:53;;;;;;;2.20;0.57;;;;;;;;;;5115686;28;20034;-57
2022/12/23 01:20:19;;;;;;;0.20;0.10;;;;;;;;;;5115928;28;20030;-56
2022/12/23 01:22:45;;;;;;;0.68;0.20;;;;;;;;;;5115530;28;20032;-58
2022/12/23 01:25:12;;;;;;;0.93;0.20;;;;;;;;;;5116378;28;20168;-58
2022/12/23 01:27:38;;;;;;;4.57;0.50;;;;;;;;;;5115421;28;20049;-57
2022/12/23 01:30:04;;;;;;;1.75;1.55;;;;;;;;;;5115678;28;20032;-55
2022/12/23 01:32:30;;;;;;;1.40;0.50;;;;;;;;;;5115411;28;20110;-56
2022/12/23 01:34:56;;;;;;;0.45;0.20;;;;;;;;;;5116102;28;20055;-56
2022/12/23 01:37:22;;;;;;;0.70;0.30;;;;;;;;;;5115573;28;20028;-55
2022/12/23 01:39:48;;;;;;;0.65;0.30;;;;;;;;;;5115748;28;20110;-56
2022/12/23 01:45:12;;;;;;;0.75;0.38;;;;;;;;;;5115266;28;20046;-55
2022/12/23 01:47:49;;;;;;;0.95;0.40;;;;;;;;;;5115661;28;20032;-56
2022/12/23 01:50:24;;;;;;;0.30;0.13;;;;;;;;;;5115302;28;20027;-56
2022/12/23 01:53:09;;;;;;;0.40;0.20;;;;;;;;;;5114725;28;20440;-57
2022/12/23 01:55:36;;;;;;;3.85;0.43;;;;;;;;;;5114988;28;20100;-56
2022/12/23 01:58:07;;;;;;;0.80;0.38;;;;;;;;;;5115340;28;20453;-56
2022/12/23 02:11:32;;;;;;;0.88;0.22;;;;;;;;;;5114775;28;20023;-54
2022/12/23 02:17:12;;;;;;;1.15;0.63;;;;;;;;;;5114416;28;20030;-56
2022/12/23 02:19:59;;;;;;;1.02;0.45;;;;;;;;;;5114642;28;20032;-56
2022/12/23 02:22:40;;;;;;;1.00;0.20;;;;;;;;;;5114915;28;20020;-56
2022/12/23 02:25:06;;;;;;;;;;;;;;;;;;5114847;28;20024;-54
2022/12/23 02:27:37;;;;;;;1.00;0.25;;;;;;;;;;5114371;28;19907;-57
2022/12/23 02:30:19;;;;;;;0.22;0.10;;;;;;;;;;5114468;28;20350;-58
2022/12/23 02:32:53;;;;;;;0.03;0.03;;;;;;;;;;5114965;28;20034;-58
2022/12/23 02:35:25;;;;;;;0.30;0.10;;;;;;;;;;5114948;28;20461;-57
2022/12/23 02:38:00;;;;;;;0.60;0.30;;;;;;;;;;5114573;28;20028;-56
2022/12/23 02:40:26;;;;;;;0.57;0.30;;;;;;;;;;5114320;28;20453;-56
2022/12/23 02:42:51;;;;;;;0.45;0.32;;;;;;;;;;5114770;28;20153;-58
2022/12/23 02:45:33;;;;;;;0.43;0.17;;;;;;;;;;5114845;28;20027;-57
2022/12/23 02:48:09;;;;;;;0.28;0.20;;;;;;;;;;5114481;28;20408;-57
2022/12/23 02:50:37;;;;;;;0.32;0.30;;;;;;;;;;5114173;28;20027;-58
2022/12/23 02:53:06;;;;;;;1.75;0.30;;;;;;;;;;5114970;28;20463;-58
2022/12/23 02:55:34;;;;;;;0.57;0.30;;;;;;;;;;5114125;28;20028;-57
2022/12/23 02:58:03;;;;;;;0.50;0.30;;;;;;;;;;5114348;28;20034;-57
2022/12/23 03:00:29;;;;;;;0.93;0.10;;;;;;;;;;5113958;28;20039;-57
2022/12/23 03:02:55;;;;;;;0.63;0.60;;;;;;;;;;5114340;28;20047;-58
2022/12/23 03:05:29;;;;;;;1.88;0.55;;;;;;;;;;5114371;28;20031;-57
2022/12/23 03:07:58;;;;;;;0.70;0.30;;;;;;;;;;5113928;28;20111;-57
2022/12/23 03:10:42;;;;;;;0.35;0.28;;;;;;;;;;5114506;28;20054;-57
2022/12/23 03:13:21;;;;;;;0.17;0.10;;;;;;;;;;5114308;28;20099;-58
2022/12/23 03:15:53;;;;;;;0.35;0.20;;;;;;;;;;5114295;28;20034;-58
2022/12/23 03:18:19;;;;;;;0.55;0.22;;;;;;;;;;5113630;28;20020;-57
2022/12/23 03:20:51;;;;;;;0.10;0.10;;;;;;;;;;5096515;28;20047;-57
2022/12/23 03:23:34;;;;;;;0.38;0.20;;;;;;;;;;5114154;28;20099;-57
2022/12/23 03:26:03;;;;;;;0.60;0.22;;;;;;;;;;5114563;28;20063;-58
2022/12/23 03:28:33;;;;;;;0.30;0.15;;;;;;;;;;5113870;28;20427;-57
2022/12/23 03:31:00;;;;;;;0.43;0.20;;;;;;;;;;5118067;28;20080;-57
2022/12/23 03:33:37;;;;;;;0.00;0.00;;;;;;;;;;5117970;28;20024;-57
2022/12/23 03:36:06;;;;;;;0.10;0.10;;;;;;;;;;5117698;28;20464;-58
2022/12/23 03:38:35;;;;;;;0.47;0.20;;;;;;;;;;5117663;28;20019;-57
2022/12/23 03:41:04;;;;;;;1.05;0.28;;;;;;;;;;5117576;28;20062;-57
2022/12/23 03:43:32;;;;;;;0.65;0.20;;;;;;;;;;5117522;28;20035;-57
2022/12/23 03:46:08;;;;;;;0.40;0.25;;;;;;;;;;5117407;28;20027;-57
2022/12/23 03:48:37;;;;;;;0.30;0.10;;;;;;;;;;5118114;28;20028;-57
2022/12/23 03:51:06;;;;;;;0.40;0.28;;;;;;;;;;5117423;28;20027;-58
2022/12/23 03:53:36;;;;;;;0.00;0.00;;;;;;;;;;5117594;28;20479;-57
2022/12/23 03:56:05;;;;;;;0.43;0.20;;;;;;;;;;5118142;28;20433;-57
2022/12/23 03:58:38;;;;;;;1.75;0.20;;;;;;;;;;5116916;28;20473;-58
2022/12/23 04:01:04;;;;;;;0.38;0.20;;;;;;;;;;5117652;28;20012;-55
2022/12/23 04:03:33;;;;;;;0.22;0.13;;;;;;;;;;5116884;28;20104;-58
2022/12/23 04:06:01;;;;;;;0.15;0.10;;;;;;;;;;5117590;28;20023;-57
2022/12/23 04:08:37;;;;;;;0.10;0.10;;;;;;;;;;5117154;28;20101;-57
2022/12/23 04:11:03;;;;;;;0.30;0.10;;;;;;;;;;5117078;28;20100;-57
2022/12/23 04:13:29;;;;;;;0.00;0.00;;;;;;;;;;5116957;28;20032;-58
2022/12/23 04:15:59;;;;;;;0.30;0.20;;;;;;;;;;5117448;28;20024;-57
2022/12/23 04:18:25;;;;;;;0.20;0.10;;;;;;;;;;5116901;28;20023;-57
2022/12/23 04:20:51;;;;;;;0.35;0.10;;;;;;;;;;5116821;28;20069;-57
2022/12/23 04:23:17;;;;;;;0.22;0.10;;;;;;;;;;5117032;28;20024;-57
2022/12/23 04:25:43;;;;;;;1.98;0.25;;;;;;;;;;5116973;28;20030;-58
2022/12/23 04:28:09;;;;;;;0.20;0.10;;;;;;;;;;5116908;28;20031;-57
2022/12/23 04:30:34;;;;;;;0.38;0.17;;;;;;;;;;5116887;28;20027;-58
2022/12/23 04:33:01;;;;;;;0.13;0.10;;;;;;;;;;5116644;28;20031;-57
2022/12/23 04:35:26;;;;;;;0.17;0.13;;;;;;;;;;5116651;28;20165;-58
2022/12/23 04:37:52;;;;;;;2.83;0.60;;;;;;;;;;5116481;28;20069;-57
2022/12/23 04:40:18;;;;;;;0.25;0.10;;;;;;;;;;5116888;28;20035;-58
2022/12/23 04:42:44;;;;;;;0.15;0.10;;;;;;;;;;5116954;28;20028;-57
2022/12/23 04:45:10;;;;;;;0.45;0.17;;;;;;;;;;5116463;28;20024;-58
2022/12/23 04:47:36;;;;;;;0.90;0.47;;;;;;;;;;5116306;28;20081;-58
2022/12/23 04:50:03;;;;;;;0.65;0.30;;;;;;;;;;5115989;28;20035;-58
2022/12/23 04:52:29;;;;;;;0.52;0.30;;;;;;;;;;5116002;28;20498;-56
2022/12/23 04:54:54;;;;;;;0.47;0.20;;;;;;;;;;5116854;28;20028;-58
2022/12/23 04:57:20;;;;;;;0.28;0.13;;;;;;;;;;5116260;28;20034;-58
2022/12/23 04:59:46;;;;;;;0.35;0.20;;;;;;;;;;5116242;28;20032;-58
2022/12/23 05:02:12;;;;;;;0.15;0.15;;;;;;;;;;5116113;28;20048;-58
2022/12/23 05:04:38;;;;;;;0.45;0.20;;;;;;;;;;5116401;28;20094;-58
2022/12/23 05:07:04;;;;;;;0.20;0.10;;;;;;;;;;5115932;28;20027;-58
2022/12/23 05:09:30;;;;;;;1.02;0.30;;;;;;;;;;5115950;28;20169;-58
2022/12/23 05:11:56;;;;;;;0.43;0.25;;;;;;;;;;5115915;28;20374;-57
2022/12/23 05:14:22;;;;;;;0.35;0.17;;;;;;;;;;5115876;28;20023;-58
2022/12/23 05:16:48;;;;;;;0.57;0.25;;;;;;;;;;5116139;28;20035;-58
2022/12/23 05:19:14;;;;;;;0.73;0.20;;;;;;;;;;5115755;28;20069;-57
2022/12/23 05:21:40;;;;;;;0.50;0.30;;;;;;;;;;5097416;28;20081;-58
2022/12/23 05:24:06;;;;;;;0.38;0.20;;;;;;;;;;5115767;28;20091;-58
2022/12/23 05:26:32;;;;;;;0.52;0.25;;;;;;;;;;5115575;28;20024;-58
2022/12/23 05:28:58;;;;;;;0.73;0.40;;;;;;;;;;5115620;28;20061;-58
2022/12/23 05:31:24;;;;;;;1.40;0.68;;;;;;;;;;5115861;28;20077;-58
2022/12/23 05:33:50;;;;;;;1.13;0.30;;;;;;;;;;5116078;28;20023;-58
2022/12/23 05:36:16;;;;;;;0.43;0.20;;;;;;;;;;5115779;28;20028;-58
2022/12/23 05:38:42;;;;;;;0.90;0.43;;;;;;;;;;5115386;28;20027;-58
2022/12/23 05:41:08;;;;;;;1.10;0.50;;;;;;;;;;5115285;28;20080;-58
2022/12/23 05:43:33;;;;;;;1.50;0.75;;;;;;;;;;5115785;28;20019;-58
2022/12/23 05:45:59;;;;;;;0.50;0.17;;;;;;;;;;5115802;28;20027;-58
2022/12/23 05:48:25;;;;;;;0.70;0.30;;;;;;;;;;5115261;28;20480;-57
2022/12/23 05:50:52;;;;;;;0.40;0.30;;;;;;;;;;5115186;28;20108;-58
2022/12/23 05:53:18;;;;;;;0.88;0.35;;;;;;;;;;5114525;28;20027;-58
2022/12/23 05:55:44;;;;;;;0.40;0.20;;;;;;;;;;5115100;28;20077;-59
2022/12/23 05:58:10;;;;;;;1.42;0.28;;;;;;;;;;5115378;28;20032;-58
2022/12/23 06:00:36;;;;;;;1.17;0.50;;;;;;;;;;5114977;28;20028;-57
2022/12/23 06:03:02;;;;;;;1.67;0.85;;;;;;;;;;5115206;28;20097;-58
2022/12/23 06:05:28;;;;;;;2.47;0.65;;;;;;;;;;5114727;28;20054;-59
2022/12/23 06:07:54;;;;;;;0.47;0.22;;;;;;;;;;5115094;28;20445;-58
2022/12/23 06:10:20;;;;;;;0.85;0.35;;;;;;;;;;5114836;28;20032;-59
2022/12/23 06:12:46;;;;;;;0.60;0.40;;;;;;;;;;5115139;28;20074;-59
2022/12/23 06:15:12;;;;;;;0.45;0.20;;;;;;;;;;5115000;28;20111;-58
2022/12/23 06:17:38;;;;;;;0.68;0.30;;;;;;;;;;5115227;28;20058;-59
2022/12/23 06:20:04;;;;;;;0.32;0.20;;;;;;;;;;5114744;28;20474;-59
2022/12/23 06:22:30;;;;;;;0.82;0.38;;;;;;;;;;5115475;28;20326;-59
2022/12/23 06:24:56;;;;;;;0.65;0.22;;;;;;;;;;5114975;28;20031;-62
2022/12/23 06:27:22;;;;;;;0.70;0.30;;;;;;;;;;5114258;28;20035;-58
2022/12/23 06:29:48;;;;;;;0.90;0.30;;;;;;;;;;5115064;28;20030;-59
2022/12/23 06:32:14;;;;;;;0.70;0.35;;;;;;;;;;5114561;28;20365;-59
2022/12/23 06:34:40;;;;;;;1.67;0.70;;;;;;;;;;5115023;28;20069;-59
2022/12/23 06:37:06;;;;;;;0.35;0.20;;;;;;;;;;5114655;28;20408;-59
2022/12/23 06:39:32;;;;;;;0.65;0.32;;;;;;;;;;5114278;28;20055;-59
2022/12/23 06:41:58;;;;;;;0.60;0.22;;;;;;;;;;5114884;28;20023;-59
2022/12/23 06:44:24;;;;;;;2.60;0.43;;;;;;;;;;5115012;28;20437;-58
2022/12/23 06:46:50;;;;;;;0.60;0.30;;;;;;;;;;5114239;28;20027;-59
2022/12/23 06:49:16;;;;;;;0.98;0.57;;;;;;;;;;5114579;28;20030;-58
2022/12/23 06:51:42;;;;;;;1.08;0.60;;;;;;;;;;5114791;28;20072;-59
2022/12/23 06:54:11;;;;;;;3.50;1.95;;;;;;;;;;5114517;28;20035;-59
2022/12/23 06:56:37;;;;;;;2.72;1.88;;;;;;;;;;5114704;28;20035;-59
2022/12/23 06:59:03;;;;;;;3.20;2.15;;;;;;;;;;5114097;28;20131;-59
2022/12/23 07:01:29;;;;;;;4.28;2.58;;;;;;;;;;5113892;28;20027;-59
2022/12/23 07:03:55;;;;;;;3.17;2.10;;;;;;;;;;5115512;28;20020;-59
2022/12/23 07:06:22;;;;;;;3.03;2.30;;;;;;;;;;5118291;28;20036;-58
2022/12/23 07:08:48;;;;;;;2.53;1.85;;;;;;;;;;5118155;28;20476;-58
2022/12/23 07:11:14;;;;;;;3.22;2.20;;;;;;;;;;5118548;28;20027;-59
2022/12/23 07:13:40;;;;;;;5.93;2.90;;;;;;;;;;5117948;28;20027;-59
2022/12/23 07:16:07;;;;;;;3.17;2.40;;;;;;;;;;5118632;28;20071;-59
2022/12/23 07:18:33;;;;;;;2.38;1.42;;;;;;;;;;5118131;28;20110;-59
2022/12/23 07:21:00;;;;;;;3.58;2.25;;;;;;;;;;5118048;28;20372;-58
2022/12/23 07:23:26;;;;;;;4.57;2.00;;;;;;;;;;5118257;28;20349;-59
2022/12/23 07:25:52;;;;;;;3.22;2.45;;;;;;;;;;5118234;28;20095;-59
2022/12/23 07:28:18;;;;;;;3.90;2.10;;;;;;;;;;5118528;28;20146;-58
2022/12/23 07:30:44;;;;;;;3.75;2.08;;;;;;;;;;5117826;28;20369;-59
2022/12/23 07:33:10;;;;;;;2.22;1.42;;;;;;;;;;5117897;28;20365;-59
2022/12/23 07:35:36;;;;;;;2.20;1.60;;;;;;;;;;5117926;28;20034;-59
2022/12/23 07:38:02;;;;;;;2.88;1.70;;;;;;;;;;5118231;28;20027;-59
2022/12/23 07:40:28;;;;;;;2.03;1.35;;;;;;;;;;5118272;28;20026;-58
2022/12/23 07:42:55;;;;;;;2.92;1.10;;;;;;;;;;5117978;28;20504;-59
2022/12/23 07:45:21;;;;;;;1.80;1.10;;;;;;;;;;5117908;28;20031;-59
2022/12/23 07:47:47;;;;;;;3.47;1.60;;;;;;;;;;5117102;28;20036;-59
2022/12/23 07:50:13;;;;;;;1.65;1.10;;;;;;;;;;5117501;28;20453;-59
2022/12/23 07:52:39;;;;;;;1.50;1.13;;;;;;;;;;5117476;28;20062;-59
2022/12/23 07:55:05;;;;;;;2.22;1.48;;;;;;;;;;5117704;28;20476;-58
2022/12/23 07:57:37;;;;;;;2.80;1.65;;;;;;;;;;5117130;28;20480;-58
2022/12/23 08:00:10;;;;;;;3.03;1.75;;;;;;;;;;5117827;28;20024;-59
2022/12/23 08:02:36;;;;;;;2.60;1.20;;;;;;;;;;5117370;28;20054;-59
2022/12/23 08:05:02;;;;;;;3.13;1.50;;;;;;;;;;5116989;28;20028;-59
2022/12/23 08:07:27;;;;;;;2.50;1.30;;;;;;;;;;5117139;28;20476;-58
2022/12/23 08:09:53;;;;;;;2.08;1.35;;;;;;;;;;5117067;28;20027;-59
2022/12/23 08:12:19;;;;;;;2.95;1.52;;;;;;;;;;5117359;28;20031;-58
2022/12/23 08:14:47;;;;;;;3.22;1.50;;;;;;;;;;5117090;28;20051;-58
2022/12/23 08:17:13;;;;;;;7.90;1.83;;;;;;;;;;5116934;28;20110;-58
2022/12/23 08:19:39;;;;;;;2.00;1.38;;;;;;;;;;5116933;28;20115;-58
2022/12/23 08:22:05;;;;;;;3.60;1.75;;;;;;;;;;5116587;28;20024;-59
2022/12/23 08:24:31;;;;;;;2.33;1.75;;;;;;;;;;5098631;28;20024;-58
2022/12/23 08:26:57;;;;;;;2.35;1.45;;;;;;;;;;5116604;28;20055;-58
2022/12/23 08:29:23;;;;;;;7.35;1.95;;;;;;;;;;5117312;28;20023;-58
2022/12/23 08:31:49;;;;;;;2.42;1.83;;;;;;;;;;5116618;28;20063;-58
2022/12/23 08:34:15;;;;;;;2.40;1.63;;;;;;;;;;5116973;28;20027;-58
2022/12/23 08:36:41;;;;;;;3.00;1.63;;;;;;;;;;5116466;28;20034;-59
2022/12/23 08:39:09;;;;;;;2.63;1.70;;;;;;;;;;5116749;28;20129;-58
2022/12/23 08:41:37;;;;;;;1.77;1.10;;;;;;;;;;5116637;28;20020;-59
2022/12/23 08:44:03;;;;;;;3.30;1.73;;;;;;;;;;5116937;28;20052;-58
2022/12/23 08:46:29;;;;;;;3.00;1.80;;;;;;;;;;5116005;28;20035;-59
2022/12/23 08:48:55;;;;;;;3.50;1.38;;;;;;;;;;5116138;28;20377;-58
2022/12/23 08:51:21;;;;;;;2.60;1.83;;;;;;;;;;5115971;28;20464;-58
2022/12/23 08:53:47;;;;;;;2.08;1.33;;;;;;;;;;5116199;28;20023;-59
2022/12/23 08:56:15;;;;;;;2.15;1.25;;;;;;;;;;5116689;28;20458;-60
2022/12/23 08:58:42;;;;;;;3.13;1.60;;;;;;;;;;5116121;28;20476;-60
2022/12/23 09:01:10;;;;;;;2.42;1.42;;;;;;;;;;5116396;28;20030;-60
2022/12/23 09:03:37;;;;;;;2.00;1.33;;;;;;;;;;5117031;28;20369;-60
2022/12/23 09:06:07;;;;;;;1.95;0.98;;;;;;;;;;5116630;28;20026;-60
2022/12/23 09:08:33;;;;;;;1.70;1.00;;;;;;;;;;5116760;28;20447;-60
2022/12/23 09:10:59;;;;;;;2.53;1.38;;;;;;;;;;5116063;28;20488;-60
2022/12/23 09:13:25;;;;;;;2.28;1.15;;;;;;;;;;5116138;28;20028;-59
2022/12/23 09:15:51;;;;;;;4.50;1.63;;;;;;;;;;5116381;28;20047;-60
2022/12/23 09:18:17;;;;;;;2.78;1.58;;;;;;;;;;5115951;28;20058;-58
2022/12/23 09:20:43;;;;;;;2.72;1.45;;;;;;;;;;5115802;28;20434;-59
2022/12/23 09:23:09;;;;;;;2.28;1.60;;;;;;;;;;5115735;28;20031;-59
2022/12/23 09:25:36;;;;;;;3.38;1.90;;;;;;;;;;5115736;28;20415;-59
2022/12/23 09:28:02;;;;;;;1.95;1.15;;;;;;;;;;5114499;28;20026;-59
2022/12/23 09:30:28;;;;;;;2.75;1.65;;;;;;;;;;5115520;28;20074;-59
2022/12/23 09:32:54;;;;;;;1.70;1.15;;;;;;;;;;5115821;28;20060;-59
2022/12/23 09:35:20;;;;;;;3.08;1.52;;;;;;;;;;5115416;28;20381;-59
2022/12/23 09:37:46;;;;;;;1.90;1.38;;;;;;;;;;5115677;28;20480;-58
2022/12/23 09:40:13;;;;;;;2.70;1.67;;;;;;;;;;5115673;28;20042;-59
2022/12/23 09:42:39;;;;;;;2.35;1.50;;;;;;;;;;5115360;28;20027;-59
2022/12/23 09:45:23;;;;;;;2.63;1.45;;;;;;;;;;5115899;28;20024;-59
2022/12/23 09:47:49;;;;;;;1.48;0.73;;;;;;;;;;5115247;28;20042;-59
2022/12/23 09:50:26;;;;;;;1.58;1.23;;;;;;;;;;5115518;28;20028;-58
2022/12/23 09:53:01;;;;;;;2.08;0.85;;;;;;;;;;5115485;28;20024;-58
2022/12/23 09:55:39;;;;;;;2.05;1.30;;;;;;;;;;5115648;28;20168;-59
2022/12/23 09:58:09;;;;;;;1.77;1.08;;;;;;;;;;5115079;28;20518;-59
2022/12/23 10:00:39;;;;;;;1.25;0.85;;;;;;;;;;5114896;28;20031;-59
2022/12/23 10:03:07;;;;;;;2.42;1.20;;;;;;;;;;5115040;28;20385;-59
2022/12/23 10:05:52;;;;;;;1.55;0.80;;;;;;;;;;5115282;28;20069;-59
2022/12/23 10:08:31;;;;;;;1.77;1.00;;;;;;;;;;5115079;28;20047;-59
2022/12/23 10:11:10;;;;;;;4.63;2.60;;;;;;;;;;5114777;28;20027;-58
2022/12/23 10:13:38;;;;;;;3.58;1.48;;;;;;;;;;5114854;28;20028;-59
2022/12/23 10:16:11;;;;;;;3.05;1.58;;;;;;;;;;5115382;28;20035;-59
2022/12/23 10:18:49;;;;;;;1.63;1.00;;;;;;;;;;5115196;28;20028;-59
2022/12/23 10:21:33;;;;;;;1.67;0.50;;;;;;;;;;5115392;28;20369;-59
2022/12/23 10:24:01;;;;;;;2.03;0.90;;;;;;;;;;5114668;28;20088;-58
2022/12/23 10:26:48;;;;;;;1.25;0.65;;;;;;;;;;5114467;28;20027;-59
2022/12/23 10:29:21;;;;;;;0.65;0.30;;;;;;;;;;5114780;28;20373;-59
2022/12/23 10:32:02;;;;;;;1.00;0.43;;;;;;;;;;5114827;28;20365;-58
2022/12/23 10:34:39;;;;;;;0.47;0.30;;;;;;;;;;5114491;28;20396;-59
2022/12/23 10:37:11;;;;;;;0.32;0.20;;;;;;;;;;5114452;28;20085;-59
2022/12/23 10:40:00;;;;;;;1.02;0.52;;;;;;;;;;5114191;28;20024;-59
2022/12/23 10:42:29;;;;;;;0.73;0.60;;;;;;;;;;5113659;28;20035;-59
2022/12/23 10:45:03;;;;;;;1.00;0.40;;;;;;;;;;5114659;28;20024;-58
2022/12/23 10:47:50;;;;;;;0.22;0.13;;;;;;;;;;5114168;28;20038;-57
2022/12/23 10:50:28;;;;;;;0.00;0.00;;;;;;;;;;5115062;28;20032;-58
2022/12/23 10:52:56;;;;;;;5.45;1.83;;;;;;;;;;5115100;28;20032;-57
2022/12/23 10:55:28;;;;;;;3.58;1.50;;;;;;;;;;5114754;28;20030;-58
2022/12/23 10:57:56;;;;;;;2.28;0.82;;;;;;;;;;5114223;28;20019;-57
2022/12/23 11:00:23;;;;;;;1.35;0.70;;;;;;;;;;5114186;28;20051;-58
2022/12/23 11:03:02;;;;;;;1.13;0.55;;;;;;;;;;5114258;28;20081;-58
2022/12/23 11:05:29;;;;;;;1.90;0.70;;;;;;;;;;5114403;28;20035;-58
2022/12/23 11:07:55;;;;;;;1.45;0.65;;;;;;;;;;5114339;28;20084;-58
2022/12/23 11:10:23;;;;;;;1.10;0.57;;;;;;;;;;5113965;28;20073;-57
2022/12/23 11:12:50;;;;;;;1.67;0.82;;;;;;;;;;5114025;28;20065;-58
2022/12/23 11:15:37;;;;;;;1.83;1.10;;;;;;;;;;5114391;28;20066;-59
2022/12/23 11:18:15;;;;;;;1.05;0.60;;;;;;;;;;5114508;28;20031;-59
2022/12/23 11:20:42;;;;;;;1.98;1.08;;;;;;;;;;5114230;28;20055;-59
2022/12/23 11:23:27;;;;;;;1.67;1.10;;;;;;;;;;5113587;28;20031;-59
2022/12/23 11:25:59;;;;;;;2.20;1.48;;;;;;;;;;5114139;28;20024;-57
2022/12/23 11:28:25;;;;;;;3.40;1.33;;;;;;;;;;5114235;28;20032;-59
2022/12/23 11:31:08;;;;;;;1.45;0.90;;;;;;;;;;5114190;28;20026;-58
2022/12/23 11:33:35;;;;;;;2.30;0.82;;;;;;;;;;5114638;28;20019;-58
2022/12/23 11:36:08;;;;;;;1.83;0.85;;;;;;;;;;5113851;28;20450;-58
2022/12/23 11:38:35;;;;;;;0.93;0.50;;;;;;;;;;5114143;28;20028;-58
2022/12/23 11:41:03;;;;;;;1.42;0.75;;;;;;;;;;5114135;28;20020;-59
2022/12/23 11:43:32;;;;;;;0.98;0.52;;;;;;;;;;5114069;28;20020;-59
2022/12/23 11:46:14;;;;;;;1.35;0.50;;;;;;;;;;5113309;28;20032;-58
2022/12/23 11:48:41;;;;;;;1.10;0.50;;;;;;;;;;5113918;28;20103;-58
2022/12/23 11:51:06;;;;;;;0.50;0.28;;;;;;;;;;5116497;28;20028;-59
2022/12/23 11:53:33;;;;;;;3.72;0.77;;;;;;;;;;5117667;28;20035;-58
2022/12/23 11:56:04;;;;;;;1.55;0.80;;;;;;;;;;5118097;28;20031;-58
2022/12/23 11:58:33;;;;;;;4.07;0.50;;;;;;;;;;5117557;28;20028;-58
2022/12/23 12:01:00;;;;;;;1.70;0.73;;;;;;;;;;5117492;28;20027;-58
2022/12/23 12:03:29;;;;;;;2.15;0.75;;;;;;;;;;5117827;28;20047;-57
2022/12/23 12:05:59;;;;;;;1.02;0.47;;;;;;;;;;5117382;28;20031;-58
2022/12/23 12:08:32;;;;;;;1.63;0.73;;;;;;;;;;5117324;28;20027;-58
2022/12/23 12:11:01;;;;;;;1.33;0.57;;;;;;;;;;5117466;28;20348;-58
2022/12/23 12:13:27;;;;;;;1.33;0.60;;;;;;;;;;5117174;28;20035;-57
2022/12/23 12:16:12;;;;;;;1.33;0.70;;;;;;;;;;5117100;28;20093;-58
2022/12/23 12:18:37;;;;;;;1.30;0.70;;;;;;;;;;5116967;28;20117;-58
2022/12/23 12:21:06;;;;;;;2.40;0.75;;;;;;;;;;5116967;28;20020;-58
2022/12/23 12:23:42;;;;;;;1.05;0.60;;;;;;;;;;5116832;28;20093;-57
2022/12/23 12:26:21;;;;;;;2.20;1.17;;;;;;;;;;5117018;28;20093;-58
2022/12/23 12:28:51;;;;;;;1.48;0.70;;;;;;;;;;5117134;28;20036;-57
2022/12/23 12:31:23;;;;;;;2.38;0.75;;;;;;;;;;5116490;28;20107;-57
2022/12/23 12:33:49;;;;;;;3.88;1.55;;;;;;;;;;5116685;28;20031;-58
2022/12/23 12:36:21;;;;;;;2.65;0.80;;;;;;;;;;5116576;28;20030;-58
2022/12/23 12:38:48;;;;;;;1.15;0.50;;;;;;;;;;5116919;28;20084;-58
2022/12/23 12:41:35;;;;;;;1.50;0.70;;;;;;;;;;5116626;28;20031;-58
2022/12/23 12:44:05;;;;;;;1.20;0.43;;;;;;;;;;5116874;28;20032;-58
2022/12/23 12:46:46;;;;;;;0.88;0.43;;;;;;;;;;5116531;28;20032;-59
2022/12/23 12:49:12;;;;;;;;;;;;;;;;;;5117427;28;20028;-58
2022/12/23 12:51:38;;;;;;;5.60;0.88;;;;;;;;;;5116682;28;19907;-57
2022/12/23 12:54:03;;;;;;;0.68;0.40;;;;;;;;;;5116644;28;20381;-57
2022/12/23 12:56:48;;;;;;;5.22;0.60;;;;;;;;;;5116647;28;20020;-58
2022/12/23 12:59:15;;;;;;;0.88;0.50;;;;;;;;;;5116280;28;20365;-59
2022/12/23 13:01:49;;;;;;;2.00;0.63;;;;;;;;;;5115802;28;20047;-59
2022/12/23 13:04:24;;;;;;;8.98;1.63;;;;;;;;;;5116586;28;20080;-58
2022/12/23 13:06:53;;;;;;;1.17;0.68;;;;;;;;;;5116776;28;20035;-57
2022/12/23 13:09:28;;;;;;;1.20;0.60;;;;;;;;;;5115848;28;20041;-58
2022/12/23 13:11:57;;;;;;;0.75;0.40;;;;;;;;;;5115807;28;20035;-59
2022/12/23 13:14:33;;;;;;;3.63;0.65;;;;;;;;;;5115592;28;20457;-58
2022/12/23 13:17:20;;;;;;;1.52;0.77;;;;;;;;;;5115602;28;20386;-57
2022/12/23 13:19:52;;;;;;;0.82;0.40;;;;;;;;;;5116280;28;20020;-57
2022/12/23 13:22:25;;;;;;;1.05;0.52;;;;;;;;;;5116199;28;20065;-58
2022/12/23 13:25:03;;;;;;;0.90;0.40;;;;;;;;;;5115749;28;20372;-59
2022/12/23 13:27:34;;;;;;;0.60;0.25;;;;;;;;;;5115532;28;20031;-58
2022/12/23 13:30:00;;;;;;;;;;;;;;;;;;5116628;28;20020;-57
2022/12/23 13:32:45;;;;;;;1.55;0.75;;;;;;;;;;5115378;28;20260;-57
2022/12/23 13:35:14;;;;;;;1.73;0.93;;;;;;;;;;5115648;28;20027;-58
2022/12/23 13:37:50;;;;;;;0.98;0.45;;;;;;;;;;5115391;28;20038;-55
2022/12/23 13:40:22;;;;;;;1.08;0.60;;;;;;;;;;5115235;28;20020;-57
2022/12/23 13:42:52;;;;;;;1.67;0.80;;;;;;;;;;5115796;28;20027;-58
2022/12/23 13:45:18;;;;;;;1.15;0.55;;;;;;;;;;5115423;28;20023;-57
2022/12/23 13:47:44;;;;;;;1.35;0.88;;;;;;;;;;5115811;28;20041;-58
2022/12/23 13:50:15;;;;;;;1.00;0.40;;;;;;;;;;5115504;28;20036;-59
2022/12/23 13:52:47;;;;;;;3.05;0.50;;;;;;;;;;5115726;28;20360;-57
2022/12/23 13:55:19;;;;;;;4.00;0.63;;;;;;;;;;5115116;28;20023;-58
2022/12/23 13:57:55;;;;;;;1.08;0.55;;;;;;;;;;5114716;28;20100;-57
2022/12/23 14:00:26;;;;;;;2.17;0.82;;;;;;;;;;5114709;28;20544;-59
2022/12/23 14:02:52;;;;;;;;;;;;;;;;;;5115193;28;20058;-58
2022/12/23 14:05:27;;;;;;;1.13;0.63;;;;;;;;;;5115010;28;19907;-57
2022/12/23 14:07:54;;;;;;;1.17;0.65;;;;;;;;;;5114690;28;20047;-58
2022/12/23 14:10:22;;;;;;;1.02;0.60;;;;;;;;;;5115243;28;20028;-58
2022/12/23 14:12:50;;;;;;;1.02;0.55;;;;;;;;;;5114692;28;20107;-58
2022/12/23 14:15:31;;;;;;;1.63;0.70;;;;;;;;;;5115398;28;20024;-58
2022/12/23 14:18:17;;;;;;;1.10;0.55;;;;;;;;;;5115182;28;20028;-58
2022/12/23 14:20:43;;;;;;;0.82;0.40;;;;;;;;;;5114568;28;20080;-58
2022/12/23 14:23:28;;;;;;;1.92;0.68;;;;;;;;;;5096116;28;20031;-57
2022/12/23 14:26:16;;;;;;;3.88;0.93;;;;;;;;;;5114801;28;20027;-57
2022/12/23 14:29:09;;;;;;;0.98;0.38;;;;;;;;;;5101510;28;20051;-58
2022/12/23 14:31:35;;;;;;;1.75;0.73;;;;;;;;;;5075812;28;20036;-59
2022/12/23 14:34:05;;;;;;;1.33;0.57;;;;;;;;;;5115021;28;20509;-58
2022/12/23 14:36:32;;;;;;;0.70;0.40;;;;;;;;;;5114674;28;20378;-57
2022/12/23 14:39:13;;;;;;;1.23;0.55;;;;;;;;;;5114390;28;20024;-57
2022/12/23 14:41:48;;;;;;;1.40;0.57;;;;;;;;;;5114326;28;20024;-58
2022/12/23 14:44:18;;;;;;;0.68;0.35;;;;;;;;;;5114432;28;20027;-59
2022/12/23 14:46:44;;;;;;;1.13;0.60;;;;;;;;;;5114258;28;20078;-58
2022/12/23 14:49:29;;;;;;;2.70;0.68;;;;;;;;;;5114230;28;20054;-59
2022/12/23 14:51:55;;;;;;;0.77;0.32;;;;;;;;;;5114195;28;20468;-60
2022/12/23 14:54:37;;;;;;;1.35;0.68;;;;;;;;;;5113958;28;20047;-58
2022/12/23 14:57:07;;;;;;;1.13;0.45;;;;;;;;;;5114713;28;20034;-58
2022/12/23 14:59:45;;;;;;;1.38;0.50;;;;;;;;;;5114232;28;20031;-60
2022/12/23 15:02:16;;;;;;;1.27;0.43;;;;;;;;;;5114495;28;20048;-59
2022/12/23 15:04:56;;;;;;;0.95;0.40;;;;;;;;;;5114464;28;20042;-59
2022/12/23 15:07:36;;;;;;;1.45;0.73;;;;;;;;;;5114049;28;20470;-58
2022/12/23 15:10:04;;;;;;;1.92;0.90;;;;;;;;;;5114195;28;20031;-59
2022/12/23 15:12:40;;;;;;;0.55;0.25;;;;;;;;;;5113762;28;20027;-59
2022/12/23 15:15:14;;;;;;;0.63;0.30;;;;;;;;;;5114054;28;20032;-59
2022/12/23 15:17:40;;;;;;;1.00;0.50;;;;;;;;;;5114523;28;20384;-59
2022/12/23 15:20:09;;;;;;;2.53;0.47;;;;;;;;;;5113807;28;20096;-59
2022/12/23 15:22:35;;;;;;;1.48;0.73;;;;;;;;;;5113947;28;20051;-59
2022/12/23 15:25:03;;;;;;;0.60;0.30;;;;;;;;;;5115321;28;20028;-60
2022/12/23 15:27:30;;;;;;;1.90;0.80;;;;;;;;;;5117847;28;20042;-59
2022/12/23 15:29:57;;;;;;;1.85;0.80;;;;;;;;;;5117819;28;20027;-59